Time;durP1;ratioP1;P1;durP2;ratioP2;P2;SDS_P1;SDS_P2;PMS_P1;PMS_P2;Temp;Humidity;BMP_temperature;BMP_pressure;BME280_temperature;BME280_humidity;BME280_pressure;Samples;Min_cycle;Max_cycle;Signal;HPM_P1;HPM_P2
2023/10/29 00:00:32;;;;;;;1.95;1.00;;;14.10;99.90;;;;;;7385940;19;20130;-80
2023/10/29 00:02:58;;;;;;;1.35;0.93;;;14.10;99.90;;;;;;7394538;19;20484;-80
2023/10/29 00:05:24;;;;;;;1.00;0.90;;;13.90;99.90;;;;;;7391843;19;20150;-81
2023/10/29 00:07:50;;;;;;;1.13;0.90;;;14.00;99.90;;;;;;7390864;19;20166;-81
2023/10/29 00:10:19;;;;;;;1.55;0.75;;;14.10;99.90;;;;;;7382711;19;20858;-80
2023/10/29 00:12:44;;;;;;;0.88;0.73;;;14.00;99.90;;;;;;7389509;19;20217;-80
2023/10/29 00:15:10;;;;;;;0.98;0.77;;;14.00;99.90;;;;;;7391956;19;20158;-80
2023/10/29 00:17:36;;;;;;;0.90;0.70;;;14.10;99.90;;;;;;7391147;19;20160;-81
2023/10/29 00:20:06;;;;;;;1.35;0.80;;;14.00;99.90;;;;;;7387122;19;20181;-80
2023/10/29 00:22:32;;;;;;;1.98;0.70;;;13.90;99.90;;;;;;7386712;19;20980;-82
2023/10/29 00:24:58;;;;;;;2.42;1.42;;;13.90;99.90;;;;;;7392929;19;20135;-81
2023/10/29 00:27:24;;;;;;;1.45;0.98;;;14.00;99.90;;;;;;7384380;19;20186;-80
2023/10/29 00:29:50;;;;;;;2.17;1.10;;;13.80;99.90;;;;;;7386226;19;20166;-79
2023/10/29 00:32:18;;;;;;;1.15;1.00;;;13.80;99.90;;;;;;7383261;19;20189;-81
2023/10/29 00:34:46;;;;;;;1.00;0.90;;;13.80;99.90;;;;;;7384528;19;20595;-81
2023/10/29 00:37:12;;;;;;;0.70;0.60;;;13.70;99.90;;;;;;7389828;19;20148;-81
2023/10/29 00:39:39;;;;;;;0.80;0.68;;;13.80;99.90;;;;;;7384787;19;20135;-81
2023/10/29 00:42:05;;;;;;;1.67;0.80;;;13.90;99.90;;;;;;7386946;19;20202;-80
2023/10/29 00:44:31;;;;;;;0.77;0.70;;;13.80;99.90;;;;;;7387827;19;20250;-81
2023/10/29 00:46:57;;;;;;;0.90;0.80;;;13.70;99.90;;;;;;7380429;19;20567;-79
2023/10/29 00:49:24;;;;;;;0.80;0.80;;;13.60;99.90;;;;;;7390337;19;20150;-80
2023/10/29 00:51:50;;;;;;;1.08;0.98;;;13.60;99.90;;;;;;7387703;19;20138;-80
2023/10/29 00:54:17;;;;;;;1.30;1.02;;;13.40;99.90;;;;;;7387392;19;20142;-81
2023/10/29 00:56:43;;;;;;;0.70;0.60;;;13.40;99.90;;;;;;7387575;19;20146;-81
2023/10/29 00:59:11;;;;;;;2.03;0.93;;;13.50;99.90;;;;;;7383780;19;21530;-81
2023/10/29 01:01:38;;;;;;;0.73;0.70;;;13.50;99.90;;;;;;7383708;19;20586;-81
2023/10/29 01:04:04;;;;;;;0.75;0.70;;;13.50;99.90;;;;;;7385252;19;20130;-80
2023/10/29 01:06:38;;;;;;;0.80;0.80;;;13.50;99.90;;;;;;7386067;19;20139;-81
2023/10/29 01:09:06;;;;;;;0.75;0.60;;;13.50;99.90;;;;;;7385867;19;20483;-79
2023/10/29 01:11:32;;;;;;;1.67;0.70;;;13.60;99.90;;;;;;7388149;19;20134;-81
2023/10/29 01:14:01;;;;;;;0.60;0.60;;;13.70;99.90;;;;;;7389369;19;20571;-80
2023/10/29 01:16:28;;;;;;;0.80;0.77;;;13.80;99.90;;;;;;7381701;19;20137;-80
2023/10/29 01:18:56;;;;;;;1.05;0.80;;;13.80;99.90;;;;;;7384031;19;20146;-80
2023/10/29 01:21:23;;;;;;;1.95;0.70;;;13.80;99.90;;;;;;7388369;19;20231;-79
2023/10/29 01:23:49;;;;;;;0.60;0.60;;;13.80;99.90;;;;;;7393590;19;20155;-79
2023/10/29 01:26:15;;;;;;;0.60;0.60;;;13.50;99.90;;;;;;7386761;19;20126;-80
2023/10/29 01:28:40;;;;;;;1.85;0.85;;;13.70;99.90;;;;;;7384895;19;20479;-80
2023/10/29 01:31:06;;;;;;;0.80;0.70;;;13.80;99.90;;;;;;7387478;19;20638;-79
2023/10/29 01:33:32;;;;;;;0.50;0.50;;;13.70;99.90;;;;;;7386108;19;20159;-79
2023/10/29 01:35:58;;;;;;;0.70;0.70;;;13.60;99.90;;;;;;7386354;19;20159;-79
2023/10/29 01:38:24;;;;;;;0.80;0.55;;;13.80;99.90;;;;;;7387201;19;20680;-79
2023/10/29 01:40:49;;;;;;;0.60;0.60;;;13.70;99.90;;;;;;7382903;19;20273;-79
2023/10/29 01:43:16;;;;;;;0.75;0.63;;;13.60;99.90;;;;;;7386698;19;20615;-79
2023/10/29 01:45:41;;;;;;;0.60;0.60;;;13.40;99.90;;;;;;7389691;19;20599;-80
2023/10/29 01:48:07;;;;;;;0.40;0.40;;;13.50;99.90;;;;;;7379497;19;20218;-79
2023/10/29 01:50:36;;;;;;;0.60;0.60;;;13.50;99.90;;;;;;7385036;19;20151;-79
2023/10/29 01:53:02;;;;;;;0.43;0.43;;;13.60;99.90;;;;;;7384172;19;20126;-80
2023/10/29 01:55:28;;;;;;;0.73;0.50;;;13.60;99.90;;;;;;7386528;19;20145;-79
2023/10/29 01:57:53;;;;;;;0.55;0.55;;;13.80;99.90;;;;;;7388630;19;20170;-79
2023/10/29 02:00:19;;;;;;;0.60;0.60;;;13.80;99.90;;;;;;7391196;19;20170;-79
2023/10/29 02:02:47;;;;;;;0.65;0.50;;;13.50;99.90;;;;;;7392320;19;20844;-80
2023/10/29 02:05:14;;;;;;;0.40;0.40;;;13.40;99.90;;;;;;7389484;19;20154;-80
2023/10/29 02:07:40;;;;;;;0.63;0.63;;;13.40;99.90;;;;;;7390775;19;20193;-79
2023/10/29 02:10:06;;;;;;;0.50;0.50;;;13.60;99.90;;;;;;7388143;19;20833;-79
2023/10/29 02:12:32;;;;;;;0.50;0.50;;;13.60;99.90;;;;;;7393194;19;20158;-80
2023/10/29 02:14:58;;;;;;;0.60;0.60;;;13.20;99.90;;;;;;7391324;19;20598;-79
2023/10/29 02:17:25;;;;;;;0.50;0.50;;;13.10;99.90;;;;;;7387769;19;20138;-79
2023/10/29 02:19:57;;;;;;;0.70;0.50;;;12.70;99.90;;;;;;7389049;19;20191;-80
2023/10/29 02:22:29;;;;;;;1.35;0.52;;;12.70;99.90;;;;;;7389218;19;20142;-79
2023/10/29 02:24:55;;;;;;;0.30;0.30;;;12.90;99.90;;;;;;7391696;19;20157;-79
2023/10/29 02:27:21;;;;;;;0.60;0.60;;;13.10;99.90;;;;;;7389988;19;20122;-80
2023/10/29 02:29:47;;;;;;;0.40;0.40;;;13.10;99.90;;;;;;7393863;19;20146;-80
2023/10/29 02:32:13;;;;;;;2.05;0.45;;;12.80;99.90;;;;;;7392246;19;20687;-81
2023/10/29 02:34:39;;;;;;;0.65;0.60;;;12.80;99.90;;;;;;7385180;19;20138;-79
2023/10/29 02:37:05;;;;;;;0.65;0.60;;;12.70;99.90;;;;;;7391995;19;20135;-79
2023/10/29 02:39:31;;;;;;;0.60;0.60;;;12.60;99.90;;;;;;7394853;19;20150;-80
2023/10/29 02:41:56;;;;;;;0.70;0.50;;;12.70;99.90;;;;;;7395921;19;20138;-80
2023/10/29 02:44:22;;;;;;;0.60;0.57;;;12.90;99.90;;;;;;7391327;19;20143;-80
2023/10/29 02:46:48;;;;;;;0.65;0.65;;;13.20;99.90;;;;;;7392226;19;20205;-79
2023/10/29 02:49:14;;;;;;;0.63;0.60;;;13.00;99.90;;;;;;7395328;19;20145;-79
2023/10/29 02:51:40;;;;;;;0.52;0.47;;;12.90;99.90;;;;;;7387518;19;20142;-80
2023/10/29 02:54:06;;;;;;;1.23;0.70;;;13.00;99.90;;;;;;7390987;19;20141;-80
2023/10/29 02:56:32;;;;;;;0.50;0.50;;;13.10;99.90;;;;;;7393126;19;21321;-79
2023/10/29 02:58:58;;;;;;;0.63;0.60;;;13.20;99.90;;;;;;7391499;19;20156;-80
2023/10/29 03:01:24;;;;;;;1.05;0.55;;;13.00;99.90;;;;;;7396086;19;20234;-80
2023/10/29 03:03:49;;;;;;;0.50;0.50;;;13.00;99.90;;;;;;7396090;19;20146;-80
2023/10/29 03:06:15;;;;;;;0.40;0.40;;;13.00;99.90;;;;;;7391705;19;20583;-81
2023/10/29 03:08:41;;;;;;;0.60;0.50;;;13.00;99.90;;;;;;7395126;19;20595;-80
2023/10/29 03:11:08;;;;;;;0.63;0.50;;;13.10;99.90;;;;;;7398074;19;20143;-81
2023/10/29 03:13:34;;;;;;;0.45;0.45;;;13.10;99.90;;;;;;7395615;19;20141;-81
2023/10/29 03:16:00;;;;;;;0.45;0.45;;;13.20;99.90;;;;;;7390157;19;20198;-78
2023/10/29 03:18:25;;;;;;;1.10;0.70;;;13.10;99.90;;;;;;7388919;19;20133;-80
2023/10/29 03:20:51;;;;;;;0.47;0.47;;;13.10;99.90;;;;;;7389543;19;20522;-80
2023/10/29 03:23:17;;;;;;;0.40;0.40;;;13.20;99.90;;;;;;7391004;19;20134;-81
2023/10/29 03:25:44;;;;;;;0.40;0.40;;;13.10;99.90;;;;;;7393365;19;20127;-80
2023/10/29 03:28:12;;;;;;;0.30;0.30;;;13.00;99.90;;;;;;7393978;19;20147;-80
2023/10/29 03:30:38;;;;;;;0.60;0.43;;;13.00;99.90;;;;;;7394067;19;20143;-80
2023/10/29 03:33:03;;;;;;;0.50;0.40;;;13.10;99.90;;;;;;7392126;19;20159;-81
2023/10/29 03:35:29;;;;;;;0.88;0.50;;;13.20;99.90;;;;;;7391476;19;20174;-80
2023/10/29 03:37:55;;;;;;;0.55;0.55;;;13.40;99.90;;;;;;7387736;19;20165;-79
2023/10/29 03:40:21;;;;;;;1.13;0.80;;;13.30;99.90;;;;;;7393575;19;20135;-81
2023/10/29 03:42:47;;;;;;;0.45;0.30;;;13.40;99.90;;;;;;7392369;19;20130;-80
2023/10/29 03:45:13;;;;;;;0.65;0.57;;;13.40;99.90;;;;;;7392632;19;20243;-79
2023/10/29 03:47:41;;;;;;;0.40;0.40;;;13.50;99.90;;;;;;7395592;19;20145;-80
2023/10/29 03:50:08;;;;;;;0.57;0.28;;;13.50;99.90;;;;;;7396337;19;20171;-81
2023/10/29 03:52:34;;;;;;;0.85;0.52;;;13.50;99.90;;;;;;7392804;19;20155;-81
2023/10/29 03:55:00;;;;;;;0.55;0.50;;;13.50;99.90;;;;;;7393653;19;20151;-80
2023/10/29 03:57:26;;;;;;;0.52;0.50;;;13.40;99.90;;;;;;7390860;19;20130;-80
2023/10/29 03:59:52;;;;;;;0.40;0.40;;;13.50;99.90;;;;;;7394199;19;20138;-80
2023/10/29 04:02:18;;;;;;;0.88;0.50;;;13.50;99.90;;;;;;7391790;19;20149;-80
2023/10/29 04:04:43;;;;;;;0.95;0.40;;;13.60;99.90;;;;;;7387629;19;20146;-80
2023/10/29 04:07:09;;;;;;;0.65;0.50;;;13.50;99.90;;;;;;7388334;19;20142;-80
2023/10/29 04:09:36;;;;;;;0.75;0.70;;;13.90;99.90;;;;;;7389925;19;20139;-80
2023/10/29 04:12:02;;;;;;;0.40;0.40;;;13.70;99.90;;;;;;7388534;19;20205;-80
2023/10/29 04:14:28;;;;;;;0.80;0.80;;;13.70;99.90;;;;;;7386175;19;20218;-80
2023/10/29 04:16:54;;;;;;;0.50;0.50;;;13.70;99.90;;;;;;7387430;19;20202;-81
2023/10/29 04:19:20;;;;;;;0.57;0.57;;;13.50;99.90;;;;;;7392603;19;20606;-81
2023/10/29 04:21:46;;;;;;;0.73;0.73;;;13.30;99.90;;;;;;7391602;19;20152;-81
2023/10/29 04:24:11;;;;;;;0.82;0.60;;;13.40;99.90;;;;;;7393118;19;20158;-79
2023/10/29 04:26:37;;;;;;;1.73;0.73;;;13.60;99.90;;;;;;7391723;19;20158;-83
2023/10/29 04:29:03;;;;;;;1.95;0.30;;;13.20;99.90;;;;;;7391530;19;20595;-84
2023/10/29 04:31:29;;;;;;;0.60;0.60;;;13.30;99.90;;;;;;7391169;19;20355;-84
2023/10/29 04:33:55;;;;;;;0.57;0.55;;;13.30;99.90;;;;;;7389584;19;20150;-84
2023/10/29 04:36:25;;;;;;;0.55;0.40;;;13.00;99.90;;;;;;7390378;19;20131;-86
2023/10/29 04:38:51;;;;;;;0.43;0.43;;;12.80;99.90;;;;;;7395117;19;20155;-84
2023/10/29 04:41:18;;;;;;;0.30;0.30;;;12.60;99.90;;;;;;7391266;19;20576;-83
2023/10/29 04:43:44;;;;;;;0.52;0.40;;;12.70;99.90;;;;;;7393789;19;20584;-85
2023/10/29 04:46:10;;;;;;;0.57;0.45;;;12.90;99.90;;;;;;7393429;19;20163;-86
2023/10/29 04:48:40;;;;;;;0.30;0.30;;;12.70;99.90;;;;;;7390940;19;20289;-83
2023/10/29 04:51:07;;;;;;;0.30;0.30;;;12.70;99.90;;;;;;7392699;19;20143;-84
2023/10/29 04:53:37;;;;;;;0.60;0.30;;;12.80;99.90;;;;;;7392192;19;20146;-83
2023/10/29 04:56:03;;;;;;;0.82;0.60;;;12.80;99.90;;;;;;7388881;19;20131;-84
2023/10/29 04:58:31;;;;;;;0.52;0.38;;;12.90;99.90;;;;;;7391961;19;20879;-83
2023/10/29 05:00:58;;;;;;;0.30;0.22;;;13.00;99.90;;;;;;7394680;19;20154;-84
2023/10/29 05:03:24;;;;;;;0.50;0.50;;;13.00;99.90;;;;;;7390422;19;20210;-83
2023/10/29 05:05:50;;;;;;;0.30;0.30;;;12.90;99.90;;;;;;7388590;19;20247;-84
2023/10/29 05:08:16;;;;;;;1.33;0.38;;;13.10;99.90;;;;;;7393694;19;20138;-83
2023/10/29 05:10:44;;;;;;;0.30;0.30;;;13.10;99.90;;;;;;7391059;19;20164;-84
2023/10/29 05:13:10;;;;;;;0.30;0.30;;;13.20;99.90;;;;;;7389486;19;20126;-83
2023/10/29 05:15:36;;;;;;;1.75;0.60;;;13.10;99.90;;;;;;7387529;19;20130;-83
2023/10/29 05:18:02;;;;;;;0.22;0.22;;;13.00;99.90;;;;;;7391306;19;20170;-84
2023/10/29 05:20:28;;;;;;;0.32;0.32;;;13.20;99.90;;;;;;7389924;19;20181;-83
2023/10/29 05:22:53;;;;;;;0.63;0.45;;;13.30;99.90;;;;;;7390076;19;20151;-83
2023/10/29 05:25:19;;;;;;;0.40;0.40;;;13.40;99.90;;;;;;7386727;19;20135;-83
2023/10/29 05:27:55;;;;;;;0.70;0.50;;;13.40;99.90;;;;;;7386605;19;20434;-84
2023/10/29 05:30:22;;;;;;;0.52;0.47;;;13.40;99.90;;;;;;7386902;19;20146;-84
2023/10/29 05:32:47;;;;;;;0.40;0.40;;;13.50;99.90;;;;;;7391098;19;20134;-84
2023/10/29 05:35:14;;;;;;;0.50;0.50;;;13.60;99.90;;;;;;7390536;19;20699;-85
2023/10/29 05:37:39;;;;;;;0.75;0.60;;;13.60;99.90;;;;;;7398173;19;20595;-86
2023/10/29 05:40:07;;;;;;;0.35;0.35;;;13.50;99.90;;;;;;7397000;19;20135;-85
2023/10/29 05:42:34;;;;;;;0.20;0.20;;;13.50;99.90;;;;;;7393171;19;20139;-85
2023/10/29 05:45:00;;;;;;;0.35;0.25;;;13.50;99.90;;;;;;7394766;19;20843;-84
2023/10/29 05:47:29;;;;;;;0.65;0.55;;;13.50;99.90;;;;;;7397669;19;20138;-84
2023/10/29 05:49:55;;;;;;;2.15;0.70;;;13.50;99.90;;;;;;7394601;19;20150;-84
2023/10/29 05:52:21;;;;;;;0.80;0.60;;;13.70;99.90;;;;;;7393357;19;20485;-84
2023/10/29 05:54:47;;;;;;;0.30;0.30;;;13.70;99.90;;;;;;7392423;19;20146;-86
2023/10/29 05:57:13;;;;;;;0.40;0.40;;;13.80;99.90;;;;;;7389341;19;20242;-84
2023/10/29 05:59:38;;;;;;;0.30;0.30;;;13.70;99.90;;;;;;7394932;19;20158;-85
2023/10/29 06:02:04;;;;;;;0.33;0.33;;;13.70;99.90;;;;;;7395956;19;20160;-84
2023/10/29 06:04:30;;;;;;;0.40;0.32;;;13.80;99.90;;;;;;7395201;19;20170;-84
2023/10/29 06:06:56;;;;;;;0.43;0.40;;;13.80;99.90;;;;;;7390066;19;20173;-83
2023/10/29 06:09:22;;;;;;;0.40;0.40;;;13.70;99.90;;;;;;7397042;19;20532;-84
2023/10/29 06:11:47;;;;;;;0.60;0.43;;;13.80;99.90;;;;;;7396716;19;20469;-83
2023/10/29 06:14:13;;;;;;;0.35;0.35;;;13.90;99.90;;;;;;7396108;19;20598;-84
2023/10/29 06:16:39;;;;;;;0.40;0.30;;;13.80;99.90;;;;;;7396408;19;20496;-85
2023/10/29 06:19:05;;;;;;;0.40;0.40;;;13.70;99.90;;;;;;7397633;19;20190;-84
2023/10/29 06:21:31;;;;;;;0.40;0.40;;;13.60;99.90;;;;;;7395787;19;20608;-83
2023/10/29 06:23:57;;;;;;;0.40;0.40;;;13.40;99.90;;;;;;7396313;19;20157;-84
2023/10/29 06:26:23;;;;;;;0.30;0.30;;;13.20;99.90;;;;;;7396240;19;20654;-84
2023/10/29 06:28:49;;;;;;;1.27;0.70;;;13.50;99.90;;;;;;7393923;19;20143;-84
2023/10/29 06:31:15;;;;;;;0.52;0.40;;;13.20;99.90;;;;;;7395533;19;20138;-84
2023/10/29 06:33:41;;;;;;;1.08;0.85;;;13.20;99.90;;;;;;7396659;19;20492;-84
2023/10/29 06:36:07;;;;;;;1.00;0.90;;;13.40;99.90;;;;;;7392076;19;20143;-84
2023/10/29 06:38:34;;;;;;;1.75;1.00;;;13.60;99.90;;;;;;7401477;19;20127;-84
2023/10/29 06:40:59;;;;;;;0.93;0.60;;;13.90;99.90;;;;;;7397687;19;20202;-86
2023/10/29 06:43:26;;;;;;;0.68;0.63;;;14.00;99.90;;;;;;7396744;19;20151;-85
2023/10/29 06:45:52;;;;;;;0.60;0.40;;;14.00;99.90;;;;;;7395501;19;20131;-85
2023/10/29 06:48:18;;;;;;;0.60;0.40;;;13.90;99.90;;;;;;7397986;19;20138;-84
2023/10/29 06:50:44;;;;;;;0.43;0.43;;;13.80;99.90;;;;;;7399232;19;20127;-85
2023/10/29 06:53:09;;;;;;;0.70;0.60;;;14.00;99.90;;;;;;7399922;19;21692;-84
2023/10/29 06:55:37;;;;;;;0.55;0.52;;;13.90;99.90;;;;;;7403254;19;20202;-84
2023/10/29 06:58:03;;;;;;;0.30;0.30;;;13.90;99.90;;;;;;7402143;19;20134;-84
2023/10/29 07:00:29;;;;;;;0.75;0.40;;;13.80;99.90;;;;;;7404614;19;20146;-84
2023/10/29 07:02:55;;;;;;;0.40;0.40;;;13.80;99.90;;;;;;7400899;19;20455;-83
2023/10/29 07:05:21;;;;;;;0.47;0.47;;;13.80;99.90;;;;;;7398191;19;20157;-82
2023/10/29 07:07:47;;;;;;;0.40;0.40;;;13.90;99.90;;;;;;7395114;19;20587;-78
2023/10/29 07:10:13;;;;;;;0.68;0.60;;;13.90;99.90;;;;;;7395100;19;20591;-82
2023/10/29 07:12:39;;;;;;;1.23;0.55;;;13.70;99.90;;;;;;7396705;19;20210;-80
2023/10/29 07:15:06;;;;;;;0.82;0.60;;;13.80;99.90;;;;;;7397520;19;20138;-82
2023/10/29 07:17:32;;;;;;;0.55;0.55;;;14.00;99.90;;;;;;7395369;19;20501;-82
2023/10/29 07:19:57;;;;;;;1.10;0.57;;;14.10;99.90;;;;;;7395514;19;20182;-83
2023/10/29 07:22:26;;;;;;;0.77;0.55;;;14.20;99.90;;;;;;7391997;19;20465;-82
2023/10/29 07:24:52;;;;;;;1.17;0.60;;;14.30;99.90;;;;;;7395760;19;20166;-83
2023/10/29 07:27:17;;;;;;;0.70;0.55;;;14.30;99.90;;;;;;7394589;19;20163;-83
2023/10/29 07:29:43;;;;;;;0.50;0.50;;;14.20;99.90;;;;;;7395686;19;20145;-82
2023/10/29 07:32:09;;;;;;;1.10;0.52;;;14.30;99.90;;;;;;7395202;19;20629;-81
2023/10/29 07:34:35;;;;;;;1.20;0.77;;;14.30;99.90;;;;;;7390820;19;20135;-82
2023/10/29 07:37:03;;;;;;;1.08;0.90;;;14.30;99.90;;;;;;7395152;19;20142;-83
2023/10/29 07:39:29;;;;;;;0.90;0.50;;;14.40;99.90;;;;;;7397173;19;20135;-83
2023/10/29 07:41:55;;;;;;;1.55;0.80;;;14.40;99.90;;;;;;7390729;19;20639;-83
2023/10/29 07:44:24;;;;;;;1.60;0.88;;;14.40;99.90;;;;;;7394042;19;20151;-83
2023/10/29 07:46:50;;;;;;;0.65;0.55;;;14.40;99.90;;;;;;7395152;19;20152;-82
2023/10/29 07:49:16;;;;;;;0.90;0.77;;;14.40;99.90;;;;;;7392830;19;20146;-82
2023/10/29 07:51:42;;;;;;;0.82;0.82;;;14.40;99.90;;;;;;7395979;19;20165;-82
2023/10/29 07:54:07;;;;;;;1.08;0.98;;;14.50;99.90;;;;;;7397145;19;20138;-84
2023/10/29 07:56:33;;;;;;;0.80;0.80;;;14.40;99.90;;;;;;7393247;19;20628;-84
2023/10/29 07:58:59;;;;;;;1.17;0.70;;;14.40;99.90;;;;;;7396322;19;20150;-84
2023/10/29 08:01:25;;;;;;;1.77;1.00;;;14.30;99.90;;;;;;7394657;19;20603;-83
2023/10/29 08:03:55;;;;;;;0.60;0.60;;;14.00;99.90;;;;;;7397716;19;20157;-84
2023/10/29 08:06:27;;;;;;;0.60;0.57;;;14.00;99.90;;;;;;7397096;19;20146;-84
2023/10/29 08:08:53;;;;;;;1.25;0.60;;;14.10;99.90;;;;;;7390028;19;20131;-86
2023/10/29 08:11:21;;;;;;;0.70;0.70;;;14.30;99.90;;;;;;7398311;19;20135;-85
2023/10/29 08:13:47;;;;;;;0.50;0.40;;;14.40;99.90;;;;;;7400313;19;20184;-84
2023/10/29 08:16:13;;;;;;;0.38;0.38;;;14.20;99.90;;;;;;7395848;19;20164;-86
2023/10/29 08:18:40;;;;;;;1.92;0.98;;;14.20;99.90;;;;;;7396398;19;20571;-84
2023/10/29 08:21:06;;;;;;;0.73;0.70;;;14.60;99.90;;;;;;7393039;19;20178;-84
2023/10/29 08:23:32;;;;;;;0.77;0.60;;;14.80;99.90;;;;;;7396797;19;20161;-82
2023/10/29 08:25:58;;;;;;;0.40;0.40;;;14.70;99.90;;;;;;7397854;19;20149;-83
2023/10/29 08:28:26;;;;;;;0.73;0.50;;;14.60;99.90;;;;;;7396700;19;20134;-84
2023/10/29 08:30:52;;;;;;;0.50;0.40;;;14.60;99.90;;;;;;7395829;19;20587;-85
2023/10/29 08:33:19;;;;;;;1.00;0.70;;;14.60;99.90;;;;;;7401321;19;20174;-84
2023/10/29 08:35:45;;;;;;;0.40;0.40;;;14.70;99.90;;;;;;7399149;19;20575;-85
2023/10/29 08:38:11;;;;;;;1.02;0.57;;;14.80;99.90;;;;;;7398476;19;20131;-83
2023/10/29 08:40:37;;;;;;;0.70;0.30;;;14.90;99.90;;;;;;7403022;19;20131;-86
2023/10/29 08:43:06;;;;;;;0.25;0.25;;;15.00;99.90;;;;;;7400462;19;20170;-83
2023/10/29 08:45:33;;;;;;;0.50;0.43;;;15.10;99.90;;;;;;7401798;19;20178;-87
2023/10/29 08:47:59;;;;;;;0.25;0.25;;;15.30;99.90;;;;;;7400889;19;20135;-85
2023/10/29 08:50:25;;;;;;;0.70;0.40;;;15.40;99.90;;;;;;7395764;19;20146;-83
2023/10/29 08:52:51;;;;;;;0.95;0.60;;;15.40;99.90;;;;;;7394933;19;20474;-83
2023/10/29 08:55:17;;;;;;;0.43;0.43;;;15.30;99.90;;;;;;7391230;19;20591;-83
2023/10/29 08:57:43;;;;;;;0.65;0.52;;;15.20;99.90;;;;;;7394232;19;20138;-83
2023/10/29 09:00:09;;;;;;;0.82;0.50;;;15.30;99.90;;;;;;7393486;19;20134;-82
2023/10/29 09:02:35;;;;;;;0.82;0.50;;;15.20;99.90;;;;;;7394110;19;20198;-83
2023/10/29 09:05:02;;;;;;;0.63;0.50;;;15.20;99.90;;;;;;7392095;19;20150;-83
2023/10/29 09:07:27;;;;;;;0.32;0.32;;;15.30;99.90;;;;;;7390071;19;20245;-83
2023/10/29 09:09:53;;;;;;;0.30;0.30;;;15.50;99.90;;;;;;7394102;19;20635;-83
2023/10/29 09:12:21;;;;;;;1.17;0.40;;;15.40;99.90;;;;;;7397244;19;20142;-85
2023/10/29 09:14:47;;;;;;;0.77;0.40;;;15.40;99.90;;;;;;7395781;19;20154;-81
2023/10/29 09:17:13;;;;;;;0.90;0.32;;;15.30;99.90;;;;;;7392906;19;20130;-81
2023/10/29 09:19:38;;;;;;;1.10;0.60;;;15.40;99.90;;;;;;7389456;19;20182;-81
2023/10/29 09:22:04;;;;;;;0.60;0.50;;;15.60;99.90;;;;;;7390082;19;20544;-81
2023/10/29 09:24:30;;;;;;;1.08;0.63;;;15.60;99.90;;;;;;7391110;19;20138;-80
2023/10/29 09:26:56;;;;;;;0.30;0.30;;;15.60;99.90;;;;;;7388852;19;20580;-83
2023/10/29 09:29:23;;;;;;;0.30;0.30;;;15.60;99.90;;;;;;7389424;19;20142;-81
2023/10/29 09:31:51;;;;;;;0.90;0.70;;;15.70;99.90;;;;;;7391801;19;20139;-80
2023/10/29 09:34:20;;;;;;;0.52;0.50;;;15.70;99.90;;;;;;7391281;19;20146;-81
2023/10/29 09:36:46;;;;;;;0.40;0.40;;;15.70;99.90;;;;;;7389391;19;20151;-82
2023/10/29 09:39:12;;;;;;;0.40;0.40;;;15.60;99.90;;;;;;7391780;19;20138;-83
2023/10/29 09:41:38;;;;;;;0.65;0.50;;;15.60;99.90;;;;;;7392251;19;20139;-92
2023/10/29 09:44:08;;;;;;;0.50;0.50;;;15.60;99.90;;;;;;7393030;19;20642;-83
2023/10/29 09:46:36;;;;;;;0.40;0.40;;;15.70;99.90;;;;;;7389982;19;20131;-85
2023/10/29 09:49:03;;;;;;;2.25;0.52;;;15.80;99.90;;;;;;7396181;19;20127;-85
2023/10/29 09:51:35;;;;;;;1.25;0.80;;;15.90;99.90;;;;;;7394924;19;20142;-84
2023/10/29 09:54:02;;;;;;;0.50;0.40;;;15.90;99.90;;;;;;7394443;19;20139;-84
2023/10/29 09:56:29;;;;;;;0.57;0.45;;;16.00;99.90;;;;;;7392339;19;20135;-85
2023/10/29 09:58:56;;;;;;;0.90;0.60;;;16.00;99.90;;;;;;7393393;19;20137;-83
2023/10/29 10:01:22;;;;;;;0.60;0.52;;;16.00;99.90;;;;;;7391241;19;20604;-83
2023/10/29 10:03:47;;;;;;;0.63;0.63;;;16.00;99.90;;;;;;7388944;19;20146;-85
2023/10/29 10:06:16;;;;;;;1.13;0.70;;;16.00;99.90;;;;;;7388664;19;20150;-84
2023/10/29 10:08:42;;;;;;;0.50;0.50;;;16.10;99.90;;;;;;7389463;19;20130;-83
2023/10/29 10:11:22;;;;;;;0.95;0.80;;;16.10;99.90;;;;;;7391892;19;20467;-83
2023/10/29 10:13:49;;;;;;;0.98;0.75;;;16.10;99.90;;;;;;7392357;19;20139;-84
2023/10/29 10:16:16;;;;;;;0.80;0.57;;;16.10;99.90;;;;;;7388689;19;20646;-83
2023/10/29 10:18:54;;;;;;;1.13;0.80;;;16.10;99.90;;;;;;7392837;19;20137;-83
2023/10/29 10:21:25;;;;;;;0.70;0.70;;;16.30;99.90;;;;;;7398103;19;20182;-83
2023/10/29 10:23:53;;;;;;;1.10;0.60;;;16.20;99.90;;;;;;7400629;19;20689;-85
2023/10/29 10:26:35;;;;;;;1.15;0.90;;;16.30;99.90;;;;;;7399010;19;20214;-85
2023/10/29 10:29:07;;;;;;;1.17;0.60;;;16.30;99.90;;;;;;7400552;19;20622;-85
2023/10/29 10:31:35;;;;;;;2.22;0.80;;;16.20;99.90;;;;;;7407260;19;20181;-89
2023/10/29 10:34:12;;;;;;;0.75;0.70;;;16.10;99.90;;;;;;7405934;19;20149;-84
2023/10/29 10:36:38;;;;;;;0.50;0.50;;;16.10;99.90;;;;;;7388111;19;20150;-85
2023/10/29 10:39:05;;;;;;;0.73;0.50;;;16.20;99.90;;;;;;7397435;19;20221;-83
2023/10/29 10:41:45;;;;;;;1.48;0.90;;;16.20;99.90;;;;;;7397864;19;20143;-84
2023/10/29 10:44:24;;;;;;;0.75;0.60;;;16.10;99.90;;;;;;7397432;19;20630;-83
2023/10/29 10:46:52;;;;;;;0.95;0.85;;;16.20;99.90;;;;;;7395903;19;20135;-84
2023/10/29 10:49:19;;;;;;;0.60;0.60;;;16.20;99.90;;;;;;7398069;19;20142;-84
2023/10/29 10:51:58;;;;;;;0.80;0.63;;;16.20;99.90;;;;;;7399856;19;20131;-84
2023/10/29 10:54:24;;;;;;;0.50;0.50;;;16.20;99.90;;;;;;7397154;19;20138;-83
2023/10/29 10:56:55;;;;;;;1.02;0.70;;;16.20;99.90;;;;;;7393713;19;20142;-82
2023/10/29 10:59:21;;;;;;;0.45;0.45;;;16.10;99.90;;;;;;7398042;19;20146;-81
2023/10/29 11:01:48;;;;;;;1.02;0.85;;;16.10;99.90;;;;;;7399219;19;20154;-84
2023/10/29 11:04:15;;;;;;;1.35;0.70;;;16.10;99.90;;;;;;7399042;19;20145;-81
2023/10/29 11:06:43;;;;;;;1.08;0.82;;;16.20;99.90;;;;;;7394306;19;20146;-77
2023/10/29 11:09:14;;;;;;;1.08;0.82;;;16.30;99.90;;;;;;7396807;19;20126;-81
2023/10/29 11:11:50;;;;;;;0.63;0.45;;;16.20;99.90;;;;;;7396336;19;20171;-84
2023/10/29 11:14:18;;;;;;;0.68;0.52;;;16.10;99.90;;;;;;7397035;19;20218;-86
2023/10/29 11:16:53;;;;;;;0.68;0.55;;;16.00;99.90;;;;;;7393913;19;20142;-84
2023/10/29 11:19:46;;;;;;;0.68;0.50;;;16.00;99.90;;;;;;7391326;19;20211;-85
2023/10/29 11:22:29;;;;;;;1.00;0.60;;;16.00;99.90;;;;;;7394241;19;20135;-86
2023/10/29 11:25:11;;;;;;;0.50;0.40;;;16.00;99.90;;;;;;7386606;19;20602;-81
2023/10/29 11:27:46;;;;;;;0.57;0.57;;;16.10;99.90;;;;;;7395616;19;20147;-86
2023/10/29 11:30:22;;;;;;;0.75;0.50;;;16.10;99.90;;;;;;7393037;19;20624;-83
2023/10/29 11:33:17;;;;;;;0.70;0.70;;;16.30;99.90;;;;;;7397400;19;20158;-85
2023/10/29 11:35:43;;;;;;;1.60;0.80;;;16.50;99.90;;;;;;7394176;19;20143;-81
2023/10/29 11:38:28;;;;;;;0.50;0.50;;;16.70;99.90;;;;;;7392788;19;20214;-82
2023/10/29 11:40:53;;;;;;;1.05;0.95;;;17.00;99.90;;;;;;7392246;19;20166;-81
2023/10/29 11:43:22;;;;;;;1.70;0.82;;;17.00;99.90;;;;;;7395421;19;20139;-84
2023/10/29 11:45:59;;;;;;;1.23;1.00;;;17.10;99.90;;;;;;7393006;19;20176;-84
2023/10/29 11:48:26;;;;;;;1.90;1.10;;;17.10;99.90;;;;;;7395259;19;20138;-83
2023/10/29 11:51:08;;;;;;;2.60;0.75;;;17.20;99.90;;;;;;7389252;19;20150;-83
2023/10/29 11:53:36;;;;;;;1.30;1.00;;;17.30;99.90;;;;;;7397579;19;20131;-83
2023/10/29 11:56:07;;;;;;;1.17;0.82;;;17.30;99.90;;;;;;7391532;19;20523;-83
2023/10/29 11:58:33;;;;;;;0.80;0.60;;;17.20;99.90;;;;;;7392386;19;20175;-83
2023/10/29 12:00:59;;;;;;;0.55;0.55;;;17.20;99.90;;;;;;7393412;19;20154;-84
2023/10/29 12:03:25;;;;;;;1.10;0.95;;;17.20;99.90;;;;;;7392331;19;20217;-85
2023/10/29 12:05:52;;;;;;;1.25;0.70;;;17.40;99.90;;;;;;7394765;19;20153;-84
2023/10/29 12:08:18;;;;;;;1.00;0.93;;;17.40;99.90;;;;;;7395052;19;20257;-82
2023/10/29 12:10:49;;;;;;;0.57;0.57;;;17.60;99.90;;;;;;7393545;19;20143;-82
2023/10/29 12:13:18;;;;;;;0.85;0.73;;;17.90;99.90;;;;;;7392185;19;20669;-86
2023/10/29 12:16:03;;;;;;;1.17;1.08;;;18.20;99.90;;;;;;7395920;19;20489;-85
2023/10/29 12:18:28;;;;;;;1.88;1.02;;;18.30;99.90;;;;;;7391374;19;20138;-83
2023/10/29 12:21:08;;;;;;;1.00;0.90;;;18.60;99.90;;;;;;7391368;19;20194;-83
2023/10/29 12:23:38;;;;;;;0.65;0.52;;;18.70;99.90;;;;;;7392964;19;20166;-82
2023/10/29 12:26:06;;;;;;;0.43;0.43;;;18.70;99.90;;;;;;7390452;19;20497;-85
2023/10/29 12:28:34;;;;;;;0.30;0.30;;;18.80;99.90;;;;;;7391964;19;20134;-82
2023/10/29 12:31:00;;;;;;;1.02;0.55;;;19.00;99.90;;;;;;7391908;19;20171;-82
2023/10/29 12:33:27;;;;;;;0.28;0.28;;;19.10;99.90;;;;;;7388235;19;20164;-85
2023/10/29 12:35:55;;;;;;;0.45;0.20;;;19.10;99.90;;;;;;7388681;19;20147;-83
2023/10/29 12:38:22;;;;;;;0.38;0.38;;;19.20;99.90;;;;;;7391214;19;20150;-81
2023/10/29 12:41:13;;;;;;;0.40;0.35;;;19.20;99.90;;;;;;7394022;19;20130;-84
2023/10/29 12:43:44;;;;;;;0.30;0.30;;;19.20;99.90;;;;;;7392886;19;20146;-83
2023/10/29 12:46:15;;;;;;;0.30;0.30;;;19.20;99.90;;;;;;7388670;19;20141;-80
2023/10/29 12:49:00;;;;;;;0.20;0.20;;;19.20;99.90;;;;;;7392721;19;20142;-82